Time;durP1;ratioP1;P1;durP2;ratioP2;P2;SDS_P1;SDS_P2;PMS_P1;PMS_P2;Temp;Humidity;BMP_temperature;BMP_pressure;BME280_temperature;BME280_humidity;BME280_pressure;Samples;Min_cycle;Max_cycle;Signal;HPM_P1;HPM_P2
2023/10/17 00:01:47;;;;;;;3.95;3.00;;;5.90;99.90;;;;;;4956294;28;20226;-87
2023/10/17 00:04:35;;;;;;;5.70;2.90;;;6.10;99.90;;;;;;4954993;28;20215;-87
2023/10/17 00:07:02;;;;;;;3.05;2.75;;;6.40;99.90;;;;;;4953348;28;20669;-88
2023/10/17 00:09:29;;;;;;;3.20;2.90;;;6.30;99.90;;;;;;4952995;28;20224;-88
2023/10/17 00:11:58;;;;;;;3.00;2.70;;;6.20;99.90;;;;;;4954825;28;20224;-88
2023/10/17 00:14:35;;;;;;;4.72;3.20;;;5.70;99.90;;;;;;4953146;28;20653;-88
2023/10/17 00:17:03;;;;;;;3.25;2.72;;;5.90;99.90;;;;;;4954493;28;20680;-88
2023/10/17 00:19:32;;;;;;;4.63;3.25;;;5.60;99.90;;;;;;4956532;28;20689;-88
2023/10/17 00:21:59;;;;;;;4.47;3.28;;;5.90;99.90;;;;;;4952408;28;20538;-88
2023/10/17 00:24:25;;;;;;;6.25;3.45;;;6.20;99.90;;;;;;4952278;28;20260;-88
2023/10/17 00:26:51;;;;;;;3.23;2.93;;;5.80;99.90;;;;;;4950843;28;20209;-88
2023/10/17 00:29:16;;;;;;;4.23;3.10;;;5.60;99.90;;;;;;4949800;28;20818;-87
2023/10/17 00:31:44;;;;;;;3.17;2.70;;;5.90;99.90;;;;;;4953711;28;20928;-88
2023/10/17 00:34:24;;;;;;;3.13;2.85;;;5.60;99.90;;;;;;4953358;28;20204;-88
2023/10/17 00:36:51;;;;;;;2.90;2.70;;;5.70;99.90;;;;;;4952884;28;20181;-88
2023/10/17 00:39:31;;;;;;;4.25;3.15;;;5.10;99.90;;;;;;4937552;28;20766;-88
2023/10/17 00:44:39;;;;;;;3.83;3.25;;;6.00;99.90;;;;;;4975376;28;20187;-88
2023/10/17 00:47:06;;;;;;;4.32;3.20;;;5.50;99.90;;;;;;4979682;28;20272;-88
2023/10/17 00:49:44;;;;;;;2.85;2.65;;;5.40;99.90;;;;;;4978481;28;20292;-88
2023/10/17 00:52:32;;;;;;;3.40;3.10;;;5.60;99.90;;;;;;4976209;28;20186;-88
2023/10/17 00:54:59;;;;;;;2.90;2.60;;;5.40;99.90;;;;;;4974866;28;20177;-88
2023/10/17 00:57:28;;;;;;;3.30;3.00;;;5.30;99.90;;;;;;4963728;28;20193;-88
2023/10/17 01:00:11;;;;;;;3.45;3.15;;;5.90;99.90;;;;;;4956587;28;20198;-88
2023/10/17 01:02:44;;;;;;;3.38;2.80;;;5.30;99.90;;;;;;4952548;28;20216;-88
2023/10/17 01:05:12;;;;;;;3.20;2.90;;;5.30;99.90;;;;;;4951122;28;20185;-88
2023/10/17 01:07:40;;;;;;;4.65;3.22;;;5.40;99.90;;;;;;4956393;28;20199;-87
2023/10/17 01:10:16;;;;;;;2.90;2.70;;;5.70;99.90;;;;;;4973997;28;20217;-88
2023/10/17 01:12:53;;;;;;;4.68;3.00;;;5.30;99.90;;;;;;4961382;28;20211;-88
2023/10/17 01:15:27;;;;;;;3.20;2.90;;;5.30;99.90;;;;;;4953092;28;20188;-88
2023/10/17 01:17:54;;;;;;;5.45;3.55;;;5.60;99.90;;;;;;4955845;28;20190;-88
2023/10/17 01:20:20;;;;;;;3.00;2.70;;;5.20;99.90;;;;;;4974983;28;20232;-88
2023/10/17 01:22:47;;;;;;;3.28;2.83;;;5.40;99.90;;;;;;4969241;28;20749;-89
2023/10/17 01:25:25;;;;;;;3.15;2.85;;;5.30;99.90;;;;;;4949115;28;20200;-89
2023/10/17 01:27:55;;;;;;;6.22;3.60;;;5.30;99.90;;;;;;4966096;28;20200;-88
2023/10/17 01:30:23;;;;;;;3.78;3.15;;;5.10;99.90;;;;;;4965026;28;20196;-89
2023/10/17 01:32:51;;;;;;;3.70;3.40;;;5.60;99.90;;;;;;4953033;28;20251;-89
2023/10/17 01:35:19;;;;;;;4.70;3.30;;;5.30;99.90;;;;;;4949659;28;20568;-88
2023/10/17 01:37:46;;;;;;;3.45;3.15;;;5.50;99.90;;;;;;4948004;28;20193;-89
2023/10/17 01:40:19;;;;;;;3.55;2.90;;;5.00;99.90;;;;;;4968011;28;20223;-89
2023/10/17 01:42:45;;;;;;;3.20;3.00;;;5.60;99.90;;;;;;4951590;28;20299;-89
2023/10/17 01:45:10;;;;;;;3.40;2.97;;;5.40;99.90;;;;;;4973512;28;20186;-88
2023/10/17 01:47:38;;;;;;;3.17;2.97;;;5.10;99.90;;;;;;4967120;28;20560;-89
2023/10/17 01:50:05;;;;;;;3.03;2.70;;;5.00;99.90;;;;;;4956675;28;20196;-89
2023/10/17 01:52:31;;;;;;;3.95;3.55;;;4.90;99.90;;;;;;4965313;28;20207;-89
2023/10/17 01:54:59;;;;;;;4.07;3.67;;;5.10;99.90;;;;;;4973636;28;20207;-89
2023/10/17 01:57:25;;;;;;;3.92;3.53;;;5.10;99.90;;;;;;4952187;28;20184;-88
2023/10/17 01:59:51;;;;;;;4.43;3.53;;;5.00;99.90;;;;;;4957396;28;20200;-89
2023/10/17 02:02:16;;;;;;;3.60;3.25;;;4.90;99.90;;;;;;4968829;28;20228;-89
2023/10/17 02:04:42;;;;;;;4.00;3.60;;;5.10;99.90;;;;;;4961643;28;20216;-89
2023/10/17 02:07:08;;;;;;;4.10;3.80;;;5.00;99.90;;;;;;4951567;28;20196;-88
2023/10/17 02:12:02;;;;;;;4.77;3.73;;;4.80;99.90;;;;;;4967000;28;20168;-88
2023/10/17 02:14:28;;;;;;;4.25;3.38;;;5.00;99.90;;;;;;4949602;28;20207;-89
2023/10/17 02:16:55;;;;;;;4.57;3.87;;;4.90;99.90;;;;;;4949964;28;20274;-88
2023/10/17 02:19:25;;;;;;;3.65;3.15;;;5.00;99.90;;;;;;4953423;28;20199;-89
2023/10/17 02:21:52;;;;;;;4.68;4.18;;;5.10;99.90;;;;;;4946555;28;20192;-88
2023/10/17 02:24:22;;;;;;;3.58;3.28;;;5.50;99.90;;;;;;4956097;28;20230;-88
2023/10/17 02:26:56;;;;;;;4.15;3.78;;;4.90;99.90;;;;;;4950998;28;20230;-89
2023/10/17 02:29:24;;;;;;;4.32;3.92;;;5.00;99.90;;;;;;4949333;28;20260;-89
2023/10/17 02:31:53;;;;;;;5.13;4.07;;;5.00;99.90;;;;;;4962537;28;20218;-89
2023/10/17 02:34:22;;;;;;;4.63;3.20;;;4.90;99.90;;;;;;4968677;28;20235;-88
2023/10/17 02:36:49;;;;;;;3.78;3.42;;;4.70;99.90;;;;;;4955970;28;20275;-88
2023/10/17 02:39:15;;;;;;;3.30;3.08;;;4.50;99.90;;;;;;4950902;28;20194;-88
2023/10/17 02:41:45;;;;;;;5.00;4.10;;;4.70;99.90;;;;;;4951775;28;20192;-88
2023/10/17 02:44:19;;;;;;;3.80;3.50;;;4.50;99.90;;;;;;4949492;28;20219;-88
2023/10/17 02:46:45;;;;;;;5.75;3.47;;;5.10;99.90;;;;;;4953345;28;20203;-88
2023/10/17 02:49:13;;;;;;;4.63;4.13;;;5.00;99.90;;;;;;4951760;28;20212;-89
2023/10/17 02:51:42;;;;;;;4.85;3.65;;;4.80;99.90;;;;;;4954547;28;20447;-88
2023/10/17 02:54:14;;;;;;;8.32;5.57;;;4.70;99.90;;;;;;4954380;28;20197;-88
2023/10/17 02:56:46;;;;;;;5.22;4.45;;;4.80;99.90;;;;;;4951829;28;20198;-88
2023/10/17 02:59:12;;;;;;;4.72;3.95;;;4.70;99.90;;;;;;4969768;28;20322;-88
2023/10/17 03:01:39;;;;;;;4.95;4.55;;;4.90;99.90;;;;;;4978559;28;20191;-88
2023/10/17 03:04:10;;;;;;;4.50;3.80;;;4.50;99.90;;;;;;4959799;28;20239;-89
2023/10/17 03:06:41;;;;;;;5.53;3.88;;;4.80;99.90;;;;;;4956869;28;20193;-88
2023/10/17 03:09:16;;;;;;;4.15;3.47;;;4.70;99.90;;;;;;4954321;28;20227;-89
2023/10/17 03:17:07;;;;;;;4.60;4.20;;;4.70;99.90;;;;;;4957963;28;20215;-88
2023/10/17 03:19:33;;;;;;;5.35;4.10;;;4.60;99.90;;;;;;4963141;28;20256;-89
2023/10/17 03:24:40;;;;;;;4.90;3.70;;;5.10;99.90;;;;;;4952895;28;20254;-88
2023/10/17 03:27:07;;;;;;;8.68;4.40;;;5.00;99.90;;;;;;4956959;28;20637;-88
2023/10/17 03:29:36;;;;;;;5.13;3.83;;;4.70;99.90;;;;;;4954981;28;20222;-88
2023/10/17 03:32:04;;;;;;;4.50;4.10;;;4.80;99.90;;;;;;4960064;28;20216;-87
2023/10/17 03:34:37;;;;;;;5.47;4.05;;;4.90;99.90;;;;;;4970410;29;20526;-88
2023/10/17 03:39:55;;;;;;;4.03;3.72;;;4.80;99.90;;;;;;4955196;28;20202;-88
2023/10/17 03:45:12;;;;;;;5.00;4.05;;;4.90;99.90;;;;;;4954172;29;20185;-88
2023/10/17 03:47:39;;;;;;;4.88;4.40;;;4.80;99.90;;;;;;4952082;29;20728;-88
2023/10/17 03:50:07;;;;;;;5.50;4.35;;;4.80;99.90;;;;;;4952366;28;20619;-88
2023/10/17 03:52:32;;;;;;;5.20;4.70;;;4.80;99.90;;;;;;4967787;28;20223;-88
2023/10/17 03:54:58;;;;;;;4.20;3.80;;;5.30;99.90;;;;;;4969060;28;20187;-88
2023/10/17 03:57:27;;;;;;;4.43;4.03;;;4.60;99.90;;;;;;4963800;28;20187;-88
2023/10/17 03:59:54;;;;;;;4.50;3.95;;;5.20;99.90;;;;;;4958893;28;20187;-88
2023/10/17 04:02:21;;;;;;;4.85;4.45;;;4.90;99.90;;;;;;4951858;28;20218;-88
2023/10/17 04:04:57;;;;;;;4.90;4.40;;;5.20;99.90;;;;;;4949468;28;20185;-87
2023/10/17 04:07:26;;;;;;;4.70;4.03;;;5.00;99.90;;;;;;4951302;29;20224;-88
2023/10/17 04:09:53;;;;;;;5.10;4.10;;;5.30;99.90;;;;;;4953956;29;20285;-88
2023/10/17 04:12:31;;;;;;;5.22;4.35;;;5.00;99.90;;;;;;4951807;29;20231;-88
2023/10/17 04:15:04;;;;;;;4.50;4.10;;;5.40;99.90;;;;;;4950695;28;20184;-88
2023/10/17 04:17:31;;;;;;;4.85;4.35;;;4.90;99.90;;;;;;4948524;28;20282;-88
2023/10/17 04:20:10;;;;;;;5.35;4.95;;;5.00;99.90;;;;;;4968657;28;20224;-88
2023/10/17 04:22:38;;;;;;;6.00;4.25;;;5.10;99.90;;;;;;4948572;28;20277;-88
2023/10/17 04:25:19;;;;;;;4.53;4.10;;;5.10;99.90;;;;;;4948387;29;20211;-88
2023/10/17 04:27:45;;;;;;;5.07;4.50;;;5.80;99.90;;;;;;4962326;28;20208;-88
2023/10/17 04:30:17;;;;;;;5.22;4.68;;;5.30;99.90;;;;;;4950394;28;20188;-88
2023/10/17 04:32:43;;;;;;;5.55;4.30;;;5.30;99.90;;;;;;4951467;28;21879;-88
2023/10/17 04:35:08;;;;;;;4.40;4.00;;;5.30;99.90;;;;;;4949812;29;20242;-88
2023/10/17 04:37:37;;;;;;;5.60;5.10;;;5.10;99.90;;;;;;4951052;29;20215;-88
2023/10/17 04:42:56;;;;;;;4.53;4.13;;;5.40;99.90;;;;;;4964321;28;20219;-88
2023/10/17 04:45:28;;;;;;;4.78;4.22;;;5.30;99.90;;;;;;4959945;28;20195;-88
2023/10/17 04:48:10;;;;;;;7.78;5.28;;;5.40;99.90;;;;;;4952983;28;20189;-88
2023/10/17 04:50:55;;;;;;;5.40;4.72;;;5.20;99.90;;;;;;4950000;28;20249;-88
2023/10/17 04:53:28;;;;;;;4.93;4.43;;;5.60;99.90;;;;;;4967403;28;20197;-88
2023/10/17 04:56:08;;;;;;;6.70;4.90;;;5.10;99.90;;;;;;4961233;29;20192;-88
2023/10/17 04:58:40;;;;;;;5.03;4.63;;;5.20;99.90;;;;;;4946683;29;20189;-88
2023/10/17 05:03:50;;;;;;;6.40;5.10;;;5.50;99.90;;;;;;4947285;28;20220;-88
2023/10/17 05:06:21;;;;;;;5.90;5.00;;;5.80;99.90;;;;;;4953909;28;20192;-89
2023/10/17 06:16:51;;;;;;;6.07;5.18;;;5.60;99.90;;;;;;4951894;28;20671;-88
2023/10/17 06:17:54;;;;;;;7.60;5.60;;;5.70;99.90;;;;;;4964043;29;20276;-87
2023/10/17 06:20:25;;;;;;;7.53;5.87;;;6.80;99.90;;;;;;4958737;28;20201;-88
2023/10/17 06:28:28;;;;;;;5.85;4.93;;;7.00;99.90;;;;;;4968871;29;20225;-88
2023/10/17 06:33:38;;;;;;;6.80;5.80;;;6.80;99.90;;;;;;4960894;29;20271;-88
2023/10/17 06:36:13;;;;;;;6.60;5.90;;;6.40;99.90;;;;;;4964088;28;20181;-88
2023/10/17 06:38:46;;;;;;;9.02;6.07;;;6.80;99.90;;;;;;4975200;28;20189;-88
2023/10/17 06:41:16;;;;;;;7.10;5.35;;;7.10;99.90;;;;;;4970701;28;20257;-88
2023/10/17 06:43:46;;;;;;;8.75;5.28;;;7.00;99.90;;;;;;4937392;29;20223;-88
2023/10/17 06:46:14;;;;;;;7.35;5.75;;;7.20;99.90;;;;;;4955656;29;20204;-88
2023/10/17 06:48:49;;;;;;;7.97;6.00;;;6.90;99.90;;;;;;4955439;28;20280;-88
2023/10/17 06:53:47;;;;;;;14.30;6.53;;;6.90;99.90;;;;;;4956508;28;20209;-87
2023/10/17 06:56:13;;;;;;;7.00;5.97;;;7.40;99.90;;;;;;4956591;28;20189;-88
2023/10/17 06:58:39;;;;;;;8.07;5.80;;;6.90;99.90;;;;;;4950861;29;20533;-88
2023/10/17 07:01:05;;;;;;;6.88;5.50;;;7.10;99.90;;;;;;4958083;29;20185;-88
2023/10/17 07:03:37;;;;;;;8.48;6.68;;;6.90;99.90;;;;;;4956119;28;20297;-88
2023/10/17 07:06:16;;;;;;;7.13;6.03;;;7.50;99.90;;;;;;4967923;28;20189;-88
2023/10/17 07:08:45;;;;;;;7.68;5.55;;;7.40;99.90;;;;;;4957859;29;20720;-88
2023/10/17 07:11:26;;;;;;;7.15;5.38;;;7.50;99.90;;;;;;4953937;29;20642;-88
2023/10/17 07:16:48;;;;;;;8.00;6.65;;;7.60;99.90;;;;;;4954813;29;20189;-88
2023/10/17 07:24:29;;;;;;;11.75;6.00;;;7.80;99.90;;;;;;4954196;29;20295;-88
2023/10/17 07:26:55;;;;;;;9.20;6.22;;;7.60;99.90;;;;;;4955587;29;20193;-87
2023/10/17 07:29:22;;;;;;;7.43;6.03;;;7.70;99.90;;;;;;4951618;28;20376;-89
2023/10/17 07:31:53;;;;;;;7.30;6.60;;;7.70;99.90;;;;;;4955611;28;20181;-88
2023/10/17 07:34:23;;;;;;;8.18;6.25;;;8.30;99.90;;;;;;4956541;29;20671;-88
2023/10/17 07:36:50;;;;;;;8.68;6.22;;;8.30;99.90;;;;;;4976104;28;20181;-88
2023/10/17 07:39:29;;;;;;;6.05;5.45;;;7.90;99.90;;;;;;4959125;28;20299;-88
2023/10/17 07:41:56;;;;;;;7.40;5.85;;;8.20;99.90;;;;;;4955728;29;21349;-89
2023/10/17 07:44:26;;;;;;;9.05;6.32;;;8.50;99.90;;;;;;4942569;29;20208;-88
2023/10/17 07:47:08;;;;;;;7.53;6.10;;;8.70;99.90;;;;;;4956846;29;20185;-89
2023/10/17 07:49:42;;;;;;;9.25;6.45;;;8.70;99.90;;;;;;4968715;28;20209;-88
2023/10/17 07:52:10;;;;;;;7.82;5.93;;;8.40;99.90;;;;;;4965995;28;20185;-89
2023/10/17 07:54:46;;;;;;;6.43;5.70;;;8.30;99.90;;;;;;4950401;29;20186;-88
2023/10/17 07:57:18;;;;;;;7.03;6.00;;;8.70;99.90;;;;;;4953085;28;20233;-88
2023/10/17 07:59:51;;;;;;;10.75;7.57;;;8.20;99.90;;;;;;4954219;29;20216;-89
2023/10/17 08:02:20;;;;;;;7.53;6.38;;;8.90;99.90;;;;;;4954163;29;20212;-88
2023/10/17 08:04:48;;;;;;;10.30;6.78;;;8.70;99.90;;;;;;4954623;29;20275;-88
2023/10/17 08:07:14;;;;;;;7.53;6.80;;;9.10;99.90;;;;;;4952564;28;20193;-88
2023/10/17 08:09:56;;;;;;;6.75;5.85;;;8.80;99.90;;;;;;4949013;28;20209;-88
2023/10/17 08:12:22;;;;;;;8.43;5.80;;;8.80;99.90;;;;;;4949836;29;20233;-89
2023/10/17 08:14:58;;;;;;;8.10;5.85;;;9.30;99.90;;;;;;4953751;28;20418;-88
2023/10/17 08:17:34;;;;;;;7.85;7.05;;;9.50;99.90;;;;;;4955127;29;20190;-88
2023/10/17 08:20:00;;;;;;;6.75;6.00;;;9.10;99.50;;;;;;4955402;29;20187;-88
2023/10/17 08:22:27;;;;;;;7.10;5.90;;;9.50;99.00;;;;;;4938472;29;20217;-89
2023/10/17 08:24:57;;;;;;;9.77;6.40;;;10.10;98.80;;;;;;4954436;29;20424;-88
2023/10/17 08:29:57;;;;;;;7.97;7.17;;;10.60;97.80;;;;;;4954509;28;20215;-87
2023/10/17 08:35:17;;;;;;;8.90;7.63;;;10.60;97.20;;;;;;4947745;29;20212;-88
2023/10/17 08:37:45;;;;;;;8.18;6.72;;;10.50;96.50;;;;;;4942043;29;20195;-87
2023/10/17 08:43:01;;;;;;;8.60;7.68;;;10.80;95.90;;;;;;4953711;29;20242;-88
2023/10/17 08:45:28;;;;;;;10.90;7.43;;;10.50;96.10;;;;;;4953608;29;20191;-87
2023/10/17 08:48:02;;;;;;;8.25;7.05;;;11.30;96.30;;;;;;4956008;28;20238;-88
2023/10/17 08:50:39;;;;;;;9.07;7.20;;;10.60;95.80;;;;;;4956347;29;20199;-88
2023/10/17 08:53:23;;;;;;;8.32;6.88;;;10.30;95.80;;;;;;4952677;29;20250;-89
2023/10/17 08:55:50;;;;;;;7.32;6.63;;;10.30;96.00;;;;;;4960791;29;20184;-88
2023/10/17 08:58:17;;;;;;;9.00;6.90;;;10.50;96.10;;;;;;4974565;28;20166;-88
2023/10/17 09:03:28;;;;;;;8.65;7.00;;;10.60;95.90;;;;;;4974949;28;20203;-88
2023/10/17 09:05:58;;;;;;;7.60;6.82;;;10.70;95.80;;;;;;4976380;28;20199;-87
2023/10/17 09:08:46;;;;;;;9.63;7.22;;;10.70;95.90;;;;;;4976125;28;20225;-88
2023/10/17 09:11:29;;;;;;;10.35;7.30;;;10.20;97.10;;;;;;4963506;28;20286;-88
2023/10/17 09:16:41;;;;;;;8.57;7.78;;;11.30;96.10;;;;;;4968484;29;20199;-88
2023/10/17 09:19:10;;;;;;;11.85;9.23;;;11.50;95.70;;;;;;4970710;29;20620;-88
2023/10/17 09:21:41;;;;;;;10.88;8.05;;;11.50;95.10;;;;;;4961196;28;20191;-87
2023/10/17 09:24:25;;;;;;;9.60;7.78;;;11.50;94.50;;;;;;4951020;29;20705;-87
2023/10/17 09:26:53;;;;;;;12.68;7.88;;;11.40;94.50;;;;;;4950536;29;20198;-87
2023/10/17 09:29:19;;;;;;;9.90;7.22;;;11.90;94.60;;;;;;4951900;29;20226;-87
2023/10/17 09:31:45;;;;;;;9.25;7.65;;;11.70;94.60;;;;;;4954887;28;20181;-87
2023/10/17 09:34:13;;;;;;;9.13;8.07;;;11.70;94.80;;;;;;4950624;29;20216;-87
2023/10/17 09:36:42;;;;;;;9.68;8.63;;;11.30;94.70;;;;;;4954392;29;20638;-87
2023/10/17 09:39:15;;;;;;;9.60;8.60;;;11.40;94.30;;;;;;4956139;28;20276;-86
2023/10/17 09:41:40;;;;;;;9.80;8.80;;;11.90;94.30;;;;;;4954221;28;20562;-87
2023/10/17 09:44:10;;;;;;;10.90;8.90;;;12.10;94.40;;;;;;4949884;28;20222;-87
2023/10/17 09:46:37;;;;;;;11.60;8.48;;;11.80;94.10;;;;;;4950881;28;20184;-87
2023/10/17 09:49:06;;;;;;;10.80;8.57;;;12.10;93.80;;;;;;4954247;28;20575;-86
2023/10/17 09:51:35;;;;;;;10.73;8.30;;;11.30;94.00;;;;;;4948881;29;20192;-87
2023/10/17 09:54:04;;;;;;;10.27;8.57;;;11.90;94.80;;;;;;4952666;29;20325;-87
2023/10/17 09:56:40;;;;;;;9.70;8.77;;;11.80;94.50;;;;;;4951427;28;20184;-87
2023/10/17 09:59:11;;;;;;;8.82;7.53;;;11.90;94.30;;;;;;4950733;28;20192;-86
2023/10/17 10:01:39;;;;;;;9.38;8.38;;;12.20;93.70;;;;;;4953307;28;20185;-87
2023/10/17 10:04:07;;;;;;;9.25;8.35;;;12.30;93.70;;;;;;4971381;28;20212;-88
2023/10/17 10:06:34;;;;;;;10.45;9.45;;;12.00;94.10;;;;;;4964899;28;20245;-87
2023/10/17 10:09:14;;;;;;;9.68;8.13;;;11.80;93.40;;;;;;4974548;28;20224;-87
2023/10/17 10:11:49;;;;;;;9.85;8.77;;;12.40;93.70;;;;;;4972780;28;20175;-86
2023/10/17 10:14:27;;;;;;;10.30;8.80;;;12.90;93.40;;;;;;4956160;29;20272;-87
2023/10/17 10:16:54;;;;;;;9.63;8.63;;;12.80;94.20;;;;;;4954170;29;20214;-88
2023/10/17 10:19:53;;;;;;;8.75;7.78;;;12.60;92.90;;;;;;4948157;29;20205;-87
2023/10/17 10:22:18;;;;;;;9.43;8.43;;;12.70;93.40;;;;;;4951348;29;20212;-86
2023/10/17 10:24:46;;;;;;;9.23;8.33;;;12.20;94.00;;;;;;4945056;28;20203;-86
2023/10/17 10:27:14;;;;;;;9.88;8.50;;;12.60;94.20;;;;;;4954018;29;20197;-87
2023/10/17 10:29:40;;;;;;;13.05;10.00;;;12.70;94.50;;;;;;4951237;28;20248;-88
2023/10/17 10:32:27;;;;;;;10.02;8.95;;;12.80;93.80;;;;;;4954198;29;20280;-88
2023/10/17 10:34:53;;;;;;;9.55;8.25;;;13.20;92.80;;;;;;4953971;29;20204;-87
2023/10/17 10:37:22;;;;;;;9.70;8.50;;;12.90;92.50;;;;;;4950645;29;20225;-87
2023/10/17 10:40:16;;;;;;;10.45;9.30;;;13.40;92.30;;;;;;4949600;28;20212;-88
2023/10/17 10:43:04;;;;;;;13.40;11.02;;;13.00;92.10;;;;;;4969598;28;20255;-88
2023/10/17 10:45:47;;;;;;;9.65;8.35;;;13.30;91.70;;;;;;4947758;28;20197;-88
2023/10/17 10:48:17;;;;;;;12.27;10.40;;;13.40;91.30;;;;;;4965497;28;20249;-88
2023/10/17 10:50:45;;;;;;;11.35;9.38;;;13.20;91.60;;;;;;4952069;28;20193;-87
2023/10/17 10:53:36;;;;;;;9.82;8.85;;;13.20;91.50;;;;;;4955830;29;20301;-87
2023/10/17 10:56:06;;;;;;;15.25;8.90;;;13.20;91.90;;;;;;4976743;28;20177;-88
2023/10/17 10:58:34;;;;;;;15.20;9.88;;;13.40;92.00;;;;;;4970136;28;20220;-87
2023/10/17 11:01:02;;;;;;;11.32;9.13;;;13.30;92.10;;;;;;4973712;28;20180;-87
2023/10/17 11:03:30;;;;;;;11.55;9.75;;;13.60;92.20;;;;;;4962795;28;20217;-87
2023/10/17 11:05:57;;;;;;;9.85;8.85;;;13.30;92.00;;;;;;4939907;29;20244;-87
2023/10/17 11:08:23;;;;;;;10.27;9.18;;;12.90;92.00;;;;;;4955021;28;20242;-86
2023/10/17 11:10:49;;;;;;;9.90;8.40;;;13.50;92.70;;;;;;4958060;28;20220;-87
2023/10/17 11:13:18;;;;;;;9.50;8.60;;;13.10;92.70;;;;;;4955782;28;20500;-88
2023/10/17 11:15:45;;;;;;;11.15;10.05;;;13.10;92.60;;;;;;4956614;28;20468;-87
2023/10/17 11:18:11;;;;;;;12.93;10.63;;;13.50;92.50;;;;;;4956275;28;20213;-87
2023/10/17 11:20:41;;;;;;;12.45;9.50;;;12.80;92.30;;;;;;4960423;28;20195;-87
2023/10/17 11:23:11;;;;;;;11.32;9.35;;;13.20;92.30;;;;;;4964209;28;20217;-88
2023/10/17 11:25:38;;;;;;;12.00;10.80;;;13.30;92.20;;;;;;4962592;28;20183;-87
2023/10/17 11:28:07;;;;;;;13.75;10.38;;;13.40;92.60;;;;;;4972076;28;20188;-87
2023/10/17 11:30:42;;;;;;;11.82;9.85;;;13.30;92.60;;;;;;4972110;28;20197;-87
2023/10/17 11:33:11;;;;;;;10.75;9.30;;;13.70;92.90;;;;;;4969644;28;20211;-88
2023/10/17 11:35:49;;;;;;;9.90;8.45;;;13.80;92.80;;;;;;4956113;28;20635;-88
2023/10/17 11:38:34;;;;;;;10.30;8.38;;;13.30;92.50;;;;;;4955393;28;20196;-88
2023/10/17 11:41:07;;;;;;;10.73;8.73;;;13.00;92.50;;;;;;4955189;29;20186;-88
2023/10/17 11:43:42;;;;;;;11.65;9.27;;;14.00;92.80;;;;;;4965911;29;20240;-87
2023/10/17 11:46:14;;;;;;;10.95;8.82;;;13.70;92.50;;;;;;4972320;28;20192;-88
2023/10/17 11:48:44;;;;;;;11.10;9.88;;;13.50;92.40;;;;;;4962231;29;20267;-88
2023/10/17 11:51:17;;;;;;;9.60;8.60;;;13.80;92.70;;;;;;4960805;28;20202;-88
2023/10/17 11:54:07;;;;;;;10.63;9.30;;;13.70;93.00;;;;;;4972647;28;20302;-87
2023/10/17 11:56:37;;;;;;;10.90;8.43;;;13.30;92.80;;;;;;4973241;29;20245;-87
2023/10/17 11:59:06;;;;;;;10.15;8.95;;;13.20;92.70;;;;;;4963158;29;20185;-88
2023/10/17 12:01:33;;;;;;;10.18;9.10;;;13.80;93.10;;;;;;4955123;28;20202;-88
2023/10/17 12:04:08;;;;;;;12.88;8.82;;;14.00;93.00;;;;;;4956128;29;20201;-86
2023/10/17 12:06:34;;;;;;;10.13;9.13;;;14.10;92.80;;;;;;4956902;28;20184;-87
2023/10/17 12:09:04;;;;;;;10.53;9.43;;;13.60;92.60;;;;;;4968984;29;20273;-86
2023/10/17 12:11:29;;;;;;;11.52;8.10;;;14.00;92.90;;;;;;4971063;28;20436;-87
2023/10/17 12:13:55;;;;;;;9.00;7.90;;;13.80;92.80;;;;;;4955393;28;20200;-87
2023/10/17 12:16:25;;;;;;;10.50;9.50;;;13.50;92.70;;;;;;4956603;29;20185;-87
2023/10/17 12:18:51;;;;;;;10.45;9.45;;;13.80;93.00;;;;;;4952265;29;20235;-87
2023/10/17 12:21:17;;;;;;;11.63;9.60;;;13.90;93.00;;;;;;4954647;28;20233;-87
2023/10/17 12:23:43;;;;;;;10.30;8.60;;;13.90;92.90;;;;;;4952706;28;20708;-88
2023/10/17 12:26:13;;;;;;;12.43;8.97;;;14.40;92.90;;;;;;4955915;29;20192;-87
2023/10/17 12:28:42;;;;;;;9.93;8.65;;;14.10;92.60;;;;;;4951617;28;20209;-87
2023/10/17 12:31:16;;;;;;;9.90;8.98;;;13.90;93.10;;;;;;4970857;28;20181;-87
2023/10/17 12:33:44;;;;;;;9.07;8.18;;;13.90;93.10;;;;;;4957070;28;20211;-88
2023/10/17 12:36:12;;;;;;;10.98;9.50;;;14.20;93.20;;;;;;4953634;28;20183;-86
2023/10/17 12:38:39;;;;;;;9.10;8.23;;;14.00;92.90;;;;;;4950075;28;20197;-87
2023/10/17 12:41:06;;;;;;;9.95;9.05;;;13.50;92.90;;;;;;4954337;28;20177;-87
2023/10/17 12:43:34;;;;;;;11.82;9.32;;;14.20;93.30;;;;;;4968351;28;20296;-87
2023/10/17 12:46:00;;;;;;;10.15;9.20;;;13.50;92.80;;;;;;4955214;28;20339;-87
2023/10/17 12:48:25;;;;;;;9.95;8.95;;;14.30;93.40;;;;;;4952007;29;20205;-87
2023/10/17 12:50:51;;;;;;;11.20;9.53;;;14.40;93.40;;;;;;4954257;28;20185;-87
2023/10/17 12:53:17;;;;;;;9.03;8.13;;;14.60;93.20;;;;;;4954384;28;20249;-87
2023/10/17 12:55:42;;;;;;;9.87;8.87;;;14.20;92.60;;;;;;4955272;28;20686;-87
2023/10/17 12:58:10;;;;;;;10.33;9.33;;;14.10;92.60;;;;;;4953295;29;20192;-86
2023/10/17 13:00:37;;;;;;;9.90;8.90;;;14.00;93.00;;;;;;4955191;28;20725;-88
2023/10/17 13:03:03;;;;;;;11.50;9.10;;;14.20;92.70;;;;;;4956235;28;20196;-88
2023/10/17 13:05:28;;;;;;;8.77;7.90;;;14.20;92.70;;;;;;4953789;28;20209;-88
2023/10/17 13:07:54;;;;;;;9.13;8.23;;;14.20;92.90;;;;;;4952177;29;20201;-88
2023/10/17 13:10:19;;;;;;;9.53;8.30;;;14.60;93.00;;;;;;4964517;29;20247;-87
2023/10/17 13:12:48;;;;;;;8.83;8.03;;;14.70;93.10;;;;;;4967389;28;20736;-88
2023/10/17 13:15:17;;;;;;;8.98;8.07;;;14.00;92.80;;;;;;4954828;28;20173;-88
2023/10/17 13:17:44;;;;;;;8.90;8.00;;;14.10;92.90;;;;;;4950719;29;20188;-87
2023/10/17 13:20:14;;;;;;;10.48;9.13;;;14.10;92.90;;;;;;4953009;28;20189;-86
2023/10/17 13:22:46;;;;;;;9.70;8.70;;;14.00;92.90;;;;;;4951167;28;20806;-87
2023/10/17 13:25:12;;;;;;;8.60;7.80;;;13.90;93.20;;;;;;4955398;28;20247;-87
2023/10/17 13:27:38;;;;;;;9.57;8.57;;;14.00;93.50;;;;;;4954440;28;20666;-88
2023/10/17 13:30:05;;;;;;;9.20;8.33;;;14.50;93.60;;;;;;4953646;28;20275;-88
2023/10/17 13:32:31;;;;;;;8.88;7.93;;;14.10;93.40;;;;;;4936867;29;20224;-87
2023/10/17 13:34:57;;;;;;;8.85;8.05;;;14.50;93.80;;;;;;4950032;28;20557;-88
2023/10/17 13:37:22;;;;;;;10.63;8.53;;;14.00;93.00;;;;;;4953086;28;20224;-88
2023/10/17 13:39:48;;;;;;;10.60;8.20;;;14.60;93.20;;;;;;4944388;28;20181;-88
2023/10/17 13:42:13;;;;;;;10.37;9.27;;;14.80;93.20;;;;;;4951394;28;20217;-88
2023/10/17 13:44:39;;;;;;;10.20;8.37;;;14.40;93.20;;;;;;4949773;29;20213;-88
2023/10/17 13:47:07;;;;;;;10.00;8.83;;;14.60;93.10;;;;;;4950696;29;20246;-88
2023/10/17 13:49:34;;;;;;;9.68;8.68;;;14.70;93.20;;;;;;4948815;28;20834;-88
2023/10/17 13:52:00;;;;;;;10.20;8.98;;;14.90;93.20;;;;;;4949206;29;20622;-88
2023/10/17 13:54:27;;;;;;;8.90;8.00;;;15.00;93.10;;;;;;4949982;28;20280;-87
2023/10/17 13:56:54;;;;;;;9.20;8.25;;;14.50;92.70;;;;;;4952069;29;20181;-88
2023/10/17 13:59:38;;;;;;;9.18;8.30;;;14.80;93.00;;;;;;4962007;28;20195;-88
2023/10/17 14:02:06;;;;;;;9.57;8.45;;;14.80;93.00;;;;;;4938124;29;20199;-86
2023/10/17 14:04:32;;;;;;;9.27;8.45;;;14.30;92.60;;;;;;4948030;28;20243;-86
2023/10/17 14:06:58;;;;;;;9.35;8.45;;;14.00;92.50;;;;;;4951259;29;20184;-86
2023/10/17 14:09:23;;;;;;;10.27;8.10;;;14.60;92.90;;;;;;4951383;28;20217;-88
2023/10/17 14:11:50;;;;;;;10.37;9.37;;;14.50;93.10;;;;;;4939671;29;20177;-88
2023/10/17 14:14:16;;;;;;;13.10;10.57;;;14.20;93.00;;;;;;4949832;28;20280;-88
2023/10/17 14:16:42;;;;;;;10.50;8.77;;;14.40;93.10;;;;;;4949255;29;20238;-87
2023/10/17 14:19:15;;;;;;;8.40;7.63;;;14.60;93.20;;;;;;4935985;29;20189;-88
2023/10/17 14:24:49;;;;;;;12.25;9.75;;;14.90;93.00;;;;;;4950086;29;20207;-88
2023/10/17 14:27:20;;;;;;;12.23;9.00;;;14.10;92.70;;;;;;4965215;28;20200;-88
2023/10/17 14:29:47;;;;;;;9.98;8.52;;;14.10;92.90;;;;;;4960889;29;20205;-88
2023/10/17 14:32:20;;;;;;;10.75;9.75;;;14.90;93.30;;;;;;4950224;28;20196;-86
2023/10/17 14:34:47;;;;;;;9.43;8.48;;;14.30;93.20;;;;;;4948308;29;20188;-86
2023/10/17 14:37:14;;;;;;;9.23;8.32;;;14.70;93.40;;;;;;4948506;29;20276;-86
2023/10/17 14:39:41;;;;;;;10.50;8.80;;;14.40;93.40;;;;;;4951644;29;20180;-88
2023/10/17 14:42:10;;;;;;;9.02;8.13;;;14.60;93.40;;;;;;4951856;29;20215;-89
2023/10/17 14:44:38;;;;;;;9.35;8.38;;;14.80;93.60;;;;;;4950490;28;20188;-88
2023/10/17 14:47:06;;;;;;;8.60;7.70;;;14.70;93.70;;;;;;4951718;28;20673;-86
2023/10/17 14:49:31;;;;;;;13.70;8.38;;;14.80;94.20;;;;;;4962190;29;20205;-89
2023/10/17 14:51:57;;;;;;;10.20;8.60;;;14.10;93.80;;;;;;4960236;29;20189;-87
2023/10/17 14:54:23;;;;;;;9.87;8.93;;;14.90;93.70;;;;;;4958791;28;20552;-88
2023/10/17 14:56:53;;;;;;;8.95;8.05;;;14.40;93.20;;;;;;4958203;28;20884;-88
2023/10/17 14:59:19;;;;;;;10.68;9.57;;;14.60;93.70;;;;;;4954336;29;20193;-88
2023/10/17 15:01:45;;;;;;;10.70;8.30;;;14.80;93.80;;;;;;4957120;28;20215;-88
2023/10/17 15:04:10;;;;;;;9.35;8.32;;;14.50;93.80;;;;;;4952265;28;20267;-87
2023/10/17 15:06:38;;;;;;;9.33;8.50;;;14.60;93.50;;;;;;4936483;29;20193;-86
2023/10/17 15:09:07;;;;;;;8.90;8.00;;;14.10;93.20;;;;;;4951342;28;20479;-87